Time;durP1;ratioP1;P1;durP2;ratioP2;P2;SDS_P1;SDS_P2;PMS_P1;PMS_P2;Temp;Humidity;BMP_temperature;BMP_pressure;BME280_temperature;BME280_humidity;BME280_pressure;Samples;Min_cycle;Max_cycle;Signal;HPM_P1;HPM_P2
2021/09/15 00:02:06;;;;;;;35.20;28.80;;;17.80;99.90;;;;;;5001270;28;20042;-54
2021/09/15 00:04:32;;;;;;;34.70;28.10;;;17.80;99.90;;;;;;5009494;28;20034;-56
2021/09/15 00:06:57;;;;;;;34.60;29.95;;;17.90;99.90;;;;;;5009056;28;20473;-54
2021/09/15 00:09:23;;;;;;;39.90;31.23;;;17.90;99.90;;;;;;5005559;28;20132;-54
2021/09/15 00:11:48;;;;;;;38.60;30.85;;;17.80;99.90;;;;;;5012372;28;20149;-56
2021/09/15 00:14:14;;;;;;;40.42;32.28;;;17.90;99.90;;;;;;5009633;28;20049;-55
2021/09/15 00:16:39;;;;;;;36.45;30.60;;;17.80;99.90;;;;;;4997733;28;20055;-56
2021/09/15 00:19:05;;;;;;;39.97;31.15;;;17.90;99.90;;;;;;5007848;28;20037;-56
2021/09/15 00:21:31;;;;;;;37.85;31.27;;;17.90;99.90;;;;;;5001235;28;20096;-54
2021/09/15 00:23:56;;;;;;;38.85;32.13;;;17.80;99.90;;;;;;5000089;28;20048;-55
2021/09/15 00:26:22;;;;;;;37.95;29.75;;;17.80;99.90;;;;;;5000387;28;20072;-55
2021/09/15 00:28:47;;;;;;;39.15;31.92;;;17.90;99.90;;;;;;5004281;28;20656;-54
2021/09/15 00:31:13;;;;;;;39.95;31.90;;;17.90;99.90;;;;;;5001544;28;20042;-56
2021/09/15 00:33:38;;;;;;;41.38;32.97;;;17.90;99.90;;;;;;5005637;28;20034;-56
2021/09/15 00:36:04;;;;;;;40.22;32.42;;;17.90;99.90;;;;;;4993737;28;20065;-55
2021/09/15 00:38:29;;;;;;;37.78;31.20;;;17.80;99.90;;;;;;4998913;28;20121;-56
2021/09/15 00:40:56;;;;;;;38.47;31.70;;;17.90;99.90;;;;;;4999948;28;20030;-55
2021/09/15 00:43:23;;;;;;;39.30;32.90;;;17.90;99.90;;;;;;5002795;28;20046;-54
2021/09/15 00:53:58;;;;;;;39.85;32.67;;;17.80;99.90;;;;;;4994933;28;20100;-54
2021/09/15 00:56:26;;;;;;;43.08;35.00;;;17.80;99.90;;;;;;4988786;28;20045;-56
2021/09/15 00:58:52;;;;;;;39.00;33.30;;;17.80;99.90;;;;;;5000042;28;20046;-53
2021/09/15 01:01:17;;;;;;;41.28;33.50;;;17.80;99.90;;;;;;4994528;28;20088;-54
2021/09/15 01:03:43;;;;;;;41.20;33.63;;;17.80;99.90;;;;;;4996617;28;20038;-56
2021/09/15 01:06:19;;;;;;;42.33;33.42;;;17.80;99.90;;;;;;4998471;28;20037;-54
2021/09/15 01:08:45;;;;;;;43.22;35.72;;;17.80;99.90;;;;;;4982535;28;20109;-52
2021/09/15 01:11:11;;;;;;;40.88;33.63;;;17.80;99.90;;;;;;5007232;28;20040;-55
2021/09/15 01:13:37;;;;;;;45.70;34.75;;;17.80;99.90;;;;;;5001187;28;20030;-50
2021/09/15 01:16:06;;;;;;;40.08;33.70;;;17.80;99.90;;;;;;4994710;28;20154;-54
2021/09/15 01:18:32;;;;;;;47.47;35.30;;;17.80;99.90;;;;;;4998256;28;20065;-54
2021/09/15 01:20:58;;;;;;;43.78;35.17;;;17.80;99.90;;;;;;5002894;28;20038;-52
2021/09/15 01:23:24;;;;;;;43.20;35.45;;;17.80;99.90;;;;;;5005794;28;20096;-56
2021/09/15 01:25:50;;;;;;;45.95;35.13;;;17.80;99.90;;;;;;5003643;28;20038;-52
2021/09/15 01:28:16;;;;;;;42.17;32.97;;;17.80;99.90;;;;;;5005050;28;20036;-54
2021/09/15 01:30:42;;;;;;;43.15;35.08;;;17.80;99.90;;;;;;5004042;28;20494;-55
2021/09/15 01:33:12;;;;;;;41.25;34.33;;;17.80;99.90;;;;;;5007979;28;20042;-55
2021/09/15 01:35:40;;;;;;;42.60;33.38;;;17.80;99.90;;;;;;4998731;28;20125;-54
2021/09/15 01:38:05;;;;;;;41.30;34.08;;;17.80;99.90;;;;;;4979010;28;20100;-54
2021/09/15 01:40:31;;;;;;;51.35;35.72;;;17.80;99.90;;;;;;4992080;28;20046;-55
2021/09/15 01:42:56;;;;;;;42.17;33.45;;;17.80;99.90;;;;;;4996349;28;20162;-54
2021/09/15 01:45:22;;;;;;;41.67;34.22;;;17.80;99.90;;;;;;5004550;28;20049;-55
2021/09/15 01:47:48;;;;;;;43.50;34.78;;;17.80;99.90;;;;;;5002317;28;20515;-55
2021/09/15 01:50:13;;;;;;;48.13;35.22;;;17.80;99.90;;;;;;5001241;28;20043;-56
2021/09/15 01:52:39;;;;;;;43.63;34.75;;;17.80;99.90;;;;;;5001441;28;20034;-52
2021/09/15 01:55:07;;;;;;;45.80;35.15;;;17.70;99.90;;;;;;4972463;28;20029;-51
2021/09/15 01:57:33;;;;;;;45.63;35.58;;;17.70;99.90;;;;;;4981815;28;20129;-56
2021/09/15 01:59:59;;;;;;;43.88;35.15;;;17.70;99.90;;;;;;4996705;28;20126;-56
2021/09/15 02:02:25;;;;;;;45.47;36.95;;;17.70;99.90;;;;;;4994930;28;20072;-55
2021/09/15 02:04:51;;;;;;;43.45;35.45;;;17.70;99.90;;;;;;4995778;28;20065;-55
2021/09/15 02:07:17;;;;;;;48.13;36.28;;;17.80;99.90;;;;;;5009591;28;20041;-54
2021/09/15 02:09:42;;;;;;;48.35;37.22;;;17.80;99.90;;;;;;4997535;28;20099;-56
2021/09/15 02:12:08;;;;;;;53.42;37.13;;;17.80;99.90;;;;;;5004839;28;20098;-56
2021/09/15 02:14:34;;;;;;;48.75;38.08;;;17.80;99.90;;;;;;5005748;28;20057;-56
2021/09/15 02:17:00;;;;;;;50.95;39.00;;;17.80;99.90;;;;;;4998380;28;20045;-57
2021/09/15 02:19:26;;;;;;;48.22;36.92;;;17.80;99.90;;;;;;4997221;28;20046;-53
2021/09/15 02:21:51;;;;;;;51.38;37.83;;;17.80;99.90;;;;;;4997710;28;20045;-53
2021/09/15 02:24:17;;;;;;;49.13;38.08;;;17.80;99.90;;;;;;5008680;28;20482;-55
2021/09/15 02:26:43;;;;;;;48.80;38.92;;;17.80;99.90;;;;;;5008472;28;20038;-55
2021/09/15 02:29:09;;;;;;;46.05;36.35;;;17.80;99.90;;;;;;4993141;28;20034;-55
2021/09/15 02:31:35;;;;;;;47.17;35.95;;;17.80;99.90;;;;;;4982675;28;20034;-55
2021/09/15 02:34:01;;;;;;;45.78;36.47;;;17.80;99.90;;;;;;5008071;28;20037;-57
2021/09/15 02:36:26;;;;;;;49.95;37.35;;;17.80;99.90;;;;;;4991860;28;20050;-54
2021/09/15 02:38:52;;;;;;;48.58;38.17;;;17.80;99.90;;;;;;5005189;28;20112;-55
2021/09/15 02:41:18;;;;;;;48.45;38.05;;;17.80;99.90;;;;;;5000941;28;20098;-56
2021/09/15 02:43:44;;;;;;;50.70;38.33;;;17.80;99.90;;;;;;5010534;28;20426;-54
2021/09/15 02:46:10;;;;;;;54.72;38.08;;;17.80;99.90;;;;;;5005635;28;20482;-55
2021/09/15 02:48:36;;;;;;;52.58;40.22;;;17.70;99.90;;;;;;5007803;28;20041;-55
2021/09/15 02:51:01;;;;;;;56.70;39.65;;;17.70;99.90;;;;;;5006964;28;20037;-55
2021/09/15 02:53:27;;;;;;;54.88;40.67;;;17.70;99.90;;;;;;4998640;28;20598;-54
2021/09/15 02:55:53;;;;;;;55.17;40.33;;;17.70;99.90;;;;;;5008389;28;20596;-54
2021/09/15 02:58:18;;;;;;;53.53;36.85;;;17.70;99.90;;;;;;5010174;28;20041;-57
2021/09/15 03:00:44;;;;;;;53.78;39.45;;;17.60;99.90;;;;;;4989924;28;20038;-55
2021/09/15 03:03:10;;;;;;;53.83;39.10;;;17.70;99.90;;;;;;5001503;28;20176;-56
2021/09/15 03:05:35;;;;;;;61.92;41.65;;;17.60;99.90;;;;;;4995372;28;20030;-54
2021/09/15 03:08:01;;;;;;;59.03;40.17;;;17.60;99.90;;;;;;5002012;28;20106;-55
2021/09/15 03:10:28;;;;;;;56.85;40.50;;;17.60;99.90;;;;;;5011998;28;20040;-53
2021/09/15 03:12:54;;;;;;;55.53;38.90;;;17.60;99.90;;;;;;5004630;28;20038;-55
2021/09/15 03:15:19;;;;;;;59.60;40.33;;;17.60;99.90;;;;;;5000884;28;20550;-56
2021/09/15 03:17:45;;;;;;;58.58;39.28;;;17.60;99.90;;;;;;4975678;28;20136;-56
2021/09/15 03:20:11;;;;;;;61.60;41.33;;;17.60;99.90;;;;;;5007044;28;20053;-55
2021/09/15 03:22:37;;;;;;;58.05;40.45;;;17.60;99.90;;;;;;5002320;28;20048;-55
2021/09/15 03:25:05;;;;;;;56.75;40.60;;;17.60;99.90;;;;;;4977579;28;20053;-53
2021/09/15 03:27:30;;;;;;;58.88;41.97;;;17.50;99.90;;;;;;5022725;28;20048;-54
2021/09/15 03:29:56;;;;;;;64.63;41.60;;;17.60;99.90;;;;;;5002318;28;20117;-54
2021/09/15 03:32:21;;;;;;;63.75;41.85;;;17.60;99.90;;;;;;5010500;28;20037;-56
2021/09/15 03:34:47;;;;;;;52.40;39.58;;;17.50;99.90;;;;;;5002909;28;20046;-56
2021/09/15 03:37:13;;;;;;;52.40;37.20;;;17.50;99.90;;;;;;4968556;28;20061;-56
2021/09/15 03:39:39;;;;;;;65.63;41.38;;;17.50;99.90;;;;;;5006583;28;20475;-56
2021/09/15 03:42:05;;;;;;;64.07;40.15;;;17.50;99.90;;;;;;4998133;28;20121;-56
2021/09/15 03:44:31;;;;;;;65.40;41.83;;;17.50;99.90;;;;;;5005383;28;20053;-56
2021/09/15 03:46:56;;;;;;;60.63;40.63;;;17.50;99.90;;;;;;4995284;28;20034;-53
2021/09/15 03:49:22;;;;;;;59.25;39.97;;;17.50;99.90;;;;;;4998821;28;20521;-54
2021/09/15 03:51:49;;;;;;;60.58;40.33;;;17.50;99.90;;;;;;4999623;28;20045;-55
2021/09/15 03:54:15;;;;;;;65.43;41.05;;;17.40;99.90;;;;;;4981442;28;20057;-52
2021/09/15 03:56:41;;;;;;;55.67;38.90;;;17.40;99.90;;;;;;5008916;28;20054;-54
2021/09/15 03:59:07;;;;;;;54.40;39.33;;;17.40;99.90;;;;;;4997938;28;20690;-54
2021/09/15 04:01:33;;;;;;;59.15;38.78;;;17.40;99.90;;;;;;4996357;28;20459;-55
2021/09/15 04:03:59;;;;;;;65.13;41.03;;;17.40;99.90;;;;;;5008788;28;20069;-55
2021/09/15 04:06:24;;;;;;;59.83;40.40;;;17.40;99.90;;;;;;5003103;28;20038;-56
2021/09/15 04:08:56;;;;;;;64.75;42.45;;;17.40;99.90;;;;;;5004760;28;20046;-55
2021/09/15 04:11:22;;;;;;;60.53;40.60;;;17.40;99.90;;;;;;4964443;28;20041;-54
2021/09/15 04:13:48;;;;;;;59.72;40.35;;;17.30;99.90;;;;;;5012679;28;20042;-54
2021/09/15 04:16:13;;;;;;;52.72;38.88;;;17.30;99.90;;;;;;5002681;28;20120;-56
2021/09/15 04:18:39;;;;;;;56.15;39.55;;;17.30;99.90;;;;;;5008084;28;20042;-54
2021/09/15 04:21:04;;;;;;;61.75;41.63;;;17.40;99.90;;;;;;4994259;28;20459;-53
2021/09/15 04:31:43;;;;;;;72.80;44.25;;;17.30;99.90;;;;;;4998786;28;20054;-55
2021/09/15 04:34:08;;;;;;;71.68;44.88;;;17.30;99.90;;;;;;4993172;28;20165;-56
2021/09/15 04:36:34;;;;;;;65.13;42.97;;;17.30;99.90;;;;;;5004463;28;20491;-55
2021/09/15 04:38:59;;;;;;;80.97;44.88;;;17.30;99.90;;;;;;4994469;28;20479;-55
2021/09/15 04:41:25;;;;;;;66.70;44.03;;;17.30;99.90;;;;;;5002560;28;20446;-54
2021/09/15 04:43:54;;;;;;;68.22;42.53;;;17.30;99.90;;;;;;5001277;28;20536;-54
2021/09/15 04:46:20;;;;;;;68.32;44.00;;;17.40;99.90;;;;;;4976842;28;20045;-56
2021/09/15 04:48:46;;;;;;;64.78;42.90;;;17.30;99.90;;;;;;5003086;28;20167;-56
2021/09/15 04:51:12;;;;;;;70.85;44.60;;;17.30;99.90;;;;;;4997067;28;20093;-56
2021/09/15 04:53:38;;;;;;;63.60;43.58;;;17.30;99.90;;;;;;4982609;28;20045;-56
2021/09/15 04:56:04;;;;;;;64.70;42.92;;;17.30;99.90;;;;;;4996996;28;20034;-56
2021/09/15 04:58:29;;;;;;;66.43;42.78;;;17.20;99.90;;;;;;5002317;28;20038;-56
2021/09/15 05:00:55;;;;;;;73.82;44.83;;;17.30;99.90;;;;;;4958916;28;20046;-56
2021/09/15 05:03:21;;;;;;;70.70;43.65;;;17.20;99.90;;;;;;5001850;28;20438;-56
2021/09/15 05:05:47;;;;;;;74.97;45.40;;;17.20;99.90;;;;;;5004808;28;20038;-56
2021/09/15 05:08:12;;;;;;;71.63;44.50;;;17.20;99.90;;;;;;5001041;28;20045;-53
2021/09/15 05:10:38;;;;;;;57.70;41.35;;;17.10;99.90;;;;;;4971520;28;20483;-54
2021/09/15 05:13:04;;;;;;;69.05;45.80;;;17.20;99.90;;;;;;4983601;28;20050;-56
2021/09/15 05:15:30;;;;;;;76.18;45.75;;;17.20;99.90;;;;;;4997777;28;20037;-55
2021/09/15 05:17:55;;;;;;;69.40;44.78;;;17.20;99.90;;;;;;4999340;28;20036;-56
2021/09/15 05:20:22;;;;;;;73.82;44.13;;;17.20;99.90;;;;;;4991141;28;20046;-55
2021/09/15 05:22:50;;;;;;;73.55;44.63;;;17.20;99.90;;;;;;4963672;28;20042;-55
2021/09/15 05:25:18;;;;;;;75.47;44.15;;;17.20;99.90;;;;;;4996317;28;20042;-56
2021/09/15 05:27:44;;;;;;;68.35;44.08;;;17.10;99.90;;;;;;5007105;28;20084;-54
2021/09/15 05:30:12;;;;;;;78.05;45.53;;;17.10;99.90;;;;;;5009443;28;20084;-56
2021/09/15 05:32:37;;;;;;;70.88;43.03;;;17.10;99.90;;;;;;4981678;28;20042;-55
2021/09/15 05:35:05;;;;;;;71.22;44.05;;;17.10;99.90;;;;;;5001631;28;20037;-55
2021/09/15 05:37:30;;;;;;;75.63;44.25;;;17.10;99.90;;;;;;4999941;28;20045;-56
2021/09/15 05:39:56;;;;;;;70.85;43.55;;;17.10;99.90;;;;;;4997949;28;20108;-55
2021/09/15 05:42:22;;;;;;;85.75;47.05;;;17.10;99.90;;;;;;4997527;28;20034;-56
2021/09/15 05:44:48;;;;;;;72.80;44.10;;;17.10;99.90;;;;;;4973879;28;20050;-56
2021/09/15 05:47:14;;;;;;;83.32;46.42;;;17.10;99.90;;;;;;4987623;28;20069;-55
2021/09/15 05:49:39;;;;;;;87.75;46.75;;;17.20;99.90;;;;;;4997483;28;20034;-53
2021/09/15 05:52:05;;;;;;;86.82;48.38;;;17.10;99.90;;;;;;4969592;28;20034;-53
2021/09/15 05:54:31;;;;;;;89.05;48.30;;;17.20;99.90;;;;;;4984062;28;20808;-56
2021/09/15 05:56:56;;;;;;;78.32;45.00;;;17.20;99.90;;;;;;5005325;28;20493;-53
2021/09/15 05:59:22;;;;;;;69.53;43.50;;;17.20;99.90;;;;;;5004584;28;20556;-55
2021/09/15 06:01:47;;;;;;;76.93;45.00;;;17.20;99.90;;;;;;5006633;28;20045;-56
2021/09/15 06:04:13;;;;;;;84.85;47.58;;;17.20;99.90;;;;;;4995919;28;20559;-56
2021/09/15 06:06:39;;;;;;;72.97;44.95;;;17.30;99.90;;;;;;4981381;28;20121;-56
2021/09/15 06:09:05;;;;;;;78.15;46.38;;;17.30;99.90;;;;;;4981817;28;20499;-54
2021/09/15 06:11:30;;;;;;;78.22;46.30;;;17.30;99.90;;;;;;4996530;28;20118;-56
2021/09/15 06:13:56;;;;;;;84.45;46.42;;;17.30;99.90;;;;;;5003758;28;20080;-55
2021/09/15 06:16:23;;;;;;;84.07;47.55;;;17.30;99.90;;;;;;4988844;28;20050;-55
2021/09/15 06:18:48;;;;;;;87.18;48.15;;;17.30;99.90;;;;;;5003789;28;20042;-56
2021/09/15 06:21:15;;;;;;;86.93;48.35;;;17.40;99.90;;;;;;4999942;28;20037;-54
2021/09/15 06:23:40;;;;;;;101.00;49.33;;;17.30;99.90;;;;;;4991610;28;20042;-56
2021/09/15 06:26:06;;;;;;;104.53;52.88;;;17.30;99.90;;;;;;5002136;28;20034;-54
2021/09/15 06:28:32;;;;;;;82.97;48.65;;;17.40;99.90;;;;;;5004129;28;20040;-54
2021/09/15 06:31:00;;;;;;;94.10;49.20;;;17.40;99.90;;;;;;4994428;28;20034;-55
2021/09/15 06:33:26;;;;;;;100.10;51.95;;;17.50;99.90;;;;;;4960148;28;20057;-55
2021/09/15 06:35:52;;;;;;;103.28;51.90;;;17.50;99.90;;;;;;4982630;28;20407;-56
2021/09/15 06:38:18;;;;;;;102.50;51.55;;;17.50;99.90;;;;;;5004493;28;20065;-54
2021/09/15 06:40:44;;;;;;;101.00;50.58;;;17.50;99.90;;;;;;5006117;28;20038;-56
2021/09/15 06:43:10;;;;;;;99.35;50.80;;;17.50;99.90;;;;;;5003978;28;20038;-56
2021/09/15 06:45:35;;;;;;;90.15;49.45;;;17.50;99.90;;;;;;4999035;28;20038;-56
2021/09/15 06:48:01;;;;;;;95.07;52.55;;;17.60;99.90;;;;;;5009134;28;20559;-56
2021/09/15 06:50:26;;;;;;;89.15;49.22;;;17.60;99.90;;;;;;5007823;28;20507;-56
2021/09/15 06:52:52;;;;;;;100.43;52.05;;;17.60;99.90;;;;;;5008469;28;20030;-56
2021/09/15 06:55:17;;;;;;;93.18;49.95;;;17.60;99.90;;;;;;4986820;28;20046;-56
2021/09/15 06:57:43;;;;;;;92.32;50.05;;;17.60;99.90;;;;;;5006541;28;20257;-56
2021/09/15 07:00:13;;;;;;;95.65;52.42;;;17.60;99.90;;;;;;5003064;28;20179;-55
2021/09/15 07:02:39;;;;;;;91.40;48.35;;;17.70;99.90;;;;;;4986802;28;20042;-55
2021/09/15 07:05:05;;;;;;;94.70;50.15;;;17.70;99.90;;;;;;4987723;28;20490;-57
2021/09/15 07:07:31;;;;;;;81.22;48.00;;;17.70;99.90;;;;;;5007940;28;20068;-56
2021/09/15 07:09:56;;;;;;;76.72;44.85;;;17.70;99.90;;;;;;5009877;28;20030;-56
2021/09/15 07:12:22;;;;;;;87.35;48.15;;;17.80;99.90;;;;;;4992831;28;20077;-56
2021/09/15 07:14:48;;;;;;;84.82;47.65;;;17.80;99.90;;;;;;4988731;28;20049;-56
2021/09/15 07:17:13;;;;;;;88.07;49.00;;;17.80;99.90;;;;;;5008973;28;20042;-56
2021/09/15 07:19:39;;;;;;;84.80;47.15;;;17.80;99.90;;;;;;5014097;28;20034;-56
2021/09/15 07:22:05;;;;;;;81.70;45.80;;;17.90;99.90;;;;;;4977812;28;20061;-56
2021/09/15 07:24:31;;;;;;;81.78;46.65;;;17.90;99.90;;;;;;5013032;28;20068;-56
2021/09/15 07:26:57;;;;;;;81.00;47.28;;;17.90;99.90;;;;;;4996600;28;20050;-56
2021/09/15 07:29:23;;;;;;;83.65;46.80;;;17.90;99.90;;;;;;5012550;28;20076;-56
2021/09/15 07:31:48;;;;;;;89.30;48.55;;;17.90;99.90;;;;;;5014884;28;20042;-56
2021/09/15 07:34:14;;;;;;;83.50;46.75;;;18.00;99.90;;;;;;5012337;28;20497;-56
2021/09/15 07:36:39;;;;;;;88.65;47.50;;;18.00;99.90;;;;;;5007519;28;20551;-55
2021/09/15 07:39:06;;;;;;;87.30;47.75;;;18.00;99.90;;;;;;5009781;28;20034;-56
2021/09/15 07:41:33;;;;;;;81.95;46.65;;;18.00;99.90;;;;;;4975817;28;20030;-56
2021/09/15 07:43:59;;;;;;;76.78;45.97;;;18.00;99.90;;;;;;5015734;28;20042;-56
2021/09/15 07:46:25;;;;;;;82.55;46.35;;;18.10;99.90;;;;;;5012254;28;20049;-52
2021/09/15 07:48:52;;;;;;;81.78;47.22;;;18.10;99.90;;;;;;5014369;28;20041;-55
2021/09/15 07:51:19;;;;;;;89.25;47.45;;;18.10;99.90;;;;;;4996408;28;20049;-56
2021/09/15 07:53:46;;;;;;;85.60;45.92;;;18.10;99.90;;;;;;4982540;28;20034;-56
2021/09/15 07:56:12;;;;;;;73.47;44.90;;;18.20;99.90;;;;;;5013981;28;20076;-55
2021/09/15 07:58:38;;;;;;;80.72;46.50;;;18.20;99.90;;;;;;4971635;28;20121;-57
2021/09/15 08:01:04;;;;;;;76.85;44.45;;;18.20;99.90;;;;;;5013183;28;20510;-56
2021/09/15 08:03:29;;;;;;;85.80;48.67;;;18.20;99.90;;;;;;5016255;28;20506;-57
2021/09/15 08:05:57;;;;;;;81.85;46.28;;;18.30;99.90;;;;;;4973720;28;20038;-56
2021/09/15 08:08:23;;;;;;;82.88;45.58;;;18.30;99.90;;;;;;5005191;28;20054;-55
2021/09/15 08:10:50;;;;;;;83.90;48.03;;;18.30;99.90;;;;;;5009743;28;20073;-57
2021/09/15 08:13:20;;;;;;;82.05;45.17;;;18.30;99.90;;;;;;4998850;28;20045;-56
2021/09/15 08:15:47;;;;;;;87.28;47.40;;;18.40;99.90;;;;;;4998736;28;20042;-56
2021/09/15 08:18:13;;;;;;;85.20;48.30;;;18.40;99.90;;;;;;5013308;28;20041;-56
2021/09/15 08:20:39;;;;;;;79.47;46.97;;;18.50;99.90;;;;;;5013652;28;20091;-56
2021/09/15 08:23:05;;;;;;;79.15;46.50;;;18.40;99.90;;;;;;4957038;28;20038;-56
2021/09/15 08:25:30;;;;;;;86.97;48.40;;;18.50;99.90;;;;;;5005891;28;20042;-55
2021/09/15 08:27:56;;;;;;;84.68;46.50;;;18.50;99.90;;;;;;4975476;28;20092;-56
2021/09/15 08:30:22;;;;;;;84.75;46.42;;;18.60;99.90;;;;;;5004591;28;20069;-56
2021/09/15 08:32:50;;;;;;;88.18;47.97;;;18.60;99.90;;;;;;5005654;28;20085;-56
2021/09/15 08:35:15;;;;;;;81.55;46.63;;;18.60;99.90;;;;;;5010309;28;20044;-56
2021/09/15 08:37:41;;;;;;;79.70;45.97;;;18.60;99.90;;;;;;4992993;28;20038;-55
2021/09/15 08:40:09;;;;;;;83.10;47.45;;;18.60;99.90;;;;;;5007400;28;20093;-56
2021/09/15 08:42:34;;;;;;;76.63;44.33;;;18.60;99.90;;;;;;5023392;28;20049;-56
2021/09/15 08:45:03;;;;;;;83.63;46.13;;;18.60;99.90;;;;;;5011319;28;20049;-57
2021/09/15 08:47:32;;;;;;;86.57;46.72;;;18.60;99.90;;;;;;4994484;28;20093;-56
2021/09/15 08:49:57;;;;;;;86.00;49.25;;;18.60;99.90;;;;;;4998644;28;20282;-56
2021/09/15 08:52:23;;;;;;;81.47;46.35;;;18.70;99.90;;;;;;5008606;28;20073;-56
2021/09/15 08:54:48;;;;;;;79.55;46.10;;;18.70;99.90;;;;;;5004769;28;20350;-56
2021/09/15 08:57:14;;;;;;;76.40;46.50;;;18.80;99.90;;;;;;5005954;28;20045;-56
2021/09/15 08:59:40;;;;;;;71.88;42.67;;;18.80;99.90;;;;;;5002850;28;20049;-55
2021/09/15 09:02:08;;;;;;;67.00;45.03;;;18.80;99.90;;;;;;4976695;28;20069;-56
2021/09/15 09:04:49;;;;;;;77.95;46.35;;;18.90;99.90;;;;;;5000993;28;20408;-56
2021/09/15 09:07:15;;;;;;;73.22;45.53;;;18.90;99.90;;;;;;5008590;28;20088;-55
2021/09/15 09:09:48;;;;;;;73.35;44.33;;;18.90;99.90;;;;;;5003545;28;20450;-55
2021/09/15 09:12:18;;;;;;;66.57;43.22;;;18.90;99.90;;;;;;5014492;28;20037;-55
2021/09/15 09:14:44;;;;;;;75.30;45.78;;;18.90;99.90;;;;;;5000803;28;20030;-56
2021/09/15 09:17:32;;;;;;;66.53;43.63;;;19.00;99.90;;;;;;5006293;28;20468;-56
2021/09/15 09:20:17;;;;;;;72.07;43.53;;;19.00;99.90;;;;;;5001725;28;20042;-54
2021/09/15 09:23:07;;;;;;;73.10;44.47;;;19.00;99.90;;;;;;4998537;28;20120;-56
2021/09/15 09:25:38;;;;;;;70.70;45.65;;;19.00;99.90;;;;;;5003986;28;20046;-54
2021/09/15 09:28:17;;;;;;;67.88;44.95;;;19.00;99.90;;;;;;4974626;28;20038;-55
2021/09/15 09:30:43;;;;;;;68.43;44.03;;;19.00;99.90;;;;;;4989770;28;20049;-56
2021/09/15 09:33:08;;;;;;;65.80;44.47;;;19.00;99.90;;;;;;5008221;28;20556;-54
2021/09/15 09:35:43;;;;;;;67.10;42.25;;;19.00;99.90;;;;;;5011803;28;20537;-56
2021/09/15 09:38:36;;;;;;;68.20;43.83;;;19.00;99.90;;;;;;5006082;28;20170;-53
2021/09/15 09:41:21;;;;;;;67.57;43.50;;;19.00;99.90;;;;;;4975836;28;20098;-56
2021/09/15 09:43:55;;;;;;;59.08;41.28;;;19.00;99.90;;;;;;5003953;28;20038;-54
2021/09/15 09:46:32;;;;;;;56.72;38.50;;;19.10;99.90;;;;;;4966453;28;20054;-55
2021/09/15 09:49:01;;;;;;;56.30;39.03;;;19.10;99.90;;;;;;5004727;28;20049;-54
2021/09/15 09:51:35;;;;;;;54.45;38.70;;;19.10;99.90;;;;;;4987105;28;20503;-56
2021/09/15 09:54:12;;;;;;;57.17;37.85;;;19.20;99.90;;;;;;5003104;28;20037;-56
2021/09/15 09:56:43;;;;;;;55.72;37.03;;;19.20;99.90;;;;;;5006188;28;20049;-56
2021/09/15 09:59:11;;;;;;;52.00;37.83;;;19.20;99.90;;;;;;4984425;28;20072;-56
2021/09/15 10:01:40;;;;;;;49.85;36.72;;;19.30;99.90;;;;;;4995629;28;20050;-56
2021/09/15 10:04:06;;;;;;;48.80;35.97;;;19.30;99.90;;;;;;4996955;28;20132;-56
2021/09/15 10:06:31;;;;;;;54.58;37.38;;;19.20;99.90;;;;;;4992600;28;20451;-56
2021/09/15 10:09:00;;;;;;;54.72;38.75;;;19.30;99.90;;;;;;5008148;28;20218;-56
2021/09/15 10:11:26;;;;;;;53.42;38.13;;;19.30;99.90;;;;;;4995789;28;20038;-56
2021/09/15 10:13:52;;;;;;;45.88;35.35;;;19.30;99.90;;;;;;5018198;28;20049;-55
2021/09/15 10:16:21;;;;;;;54.03;38.28;;;19.40;99.90;;;;;;5008812;28;20487;-57
2021/09/15 10:19:03;;;;;;;45.30;33.45;;;19.40;99.90;;;;;;5009325;28;20038;-55
2021/09/15 10:21:32;;;;;;;48.33;34.03;;;19.50;99.90;;;;;;5008358;28;20034;-54
2021/09/15 10:23:59;;;;;;;47.75;34.38;;;19.50;99.90;;;;;;4998715;28;20110;-57
2021/09/15 10:26:29;;;;;;;54.55;37.47;;;19.50;99.90;;;;;;5022623;28;20034;-57
2021/09/15 10:29:13;;;;;;;46.38;34.88;;;19.60;99.90;;;;;;5010196;28;20049;-55
2021/09/15 10:31:58;;;;;;;49.17;36.38;;;19.60;99.90;;;;;;5012437;28;20045;-56
2021/09/15 10:34:44;;;;;;;50.67;36.42;;;19.70;99.90;;;;;;4996551;28;20054;-57
2021/09/15 10:37:12;;;;;;;50.10;35.75;;;19.70;99.90;;;;;;5010946;28;20568;-57
2021/09/15 10:39:54;;;;;;;50.38;36.60;;;19.70;99.90;;;;;;5003029;28;20033;-54
2021/09/15 10:42:35;;;;;;;51.90;39.35;;;19.80;99.90;;;;;;5001701;28;20044;-51
2021/09/15 10:45:10;;;;;;;53.03;38.40;;;19.80;99.90;;;;;;4999388;28;20046;-53
2021/09/15 10:47:43;;;;;;;53.78;38.63;;;19.70;99.90;;;;;;5000421;28;20058;-53
2021/09/15 10:50:11;;;;;;;52.08;36.38;;;19.70;99.90;;;;;;4983787;28;20042;-53
2021/09/15 10:52:39;;;;;;;55.45;37.90;;;19.70;99.90;;;;;;5005777;28;20272;-50
2021/09/15 10:55:22;;;;;;;53.17;37.80;;;19.70;99.90;;;;;;5002527;28;20040;-54
2021/09/15 10:57:50;;;;;;;53.08;37.72;;;19.80;99.90;;;;;;5009670;28;20065;-51
2021/09/15 11:00:15;;;;;;;51.70;37.63;;;19.70;99.90;;;;;;5004325;28;20034;-51
2021/09/15 11:02:42;;;;;;;50.90;38.17;;;19.80;99.90;;;;;;5007425;28;20043;-55
2021/09/15 11:05:27;;;;;;;51.47;37.78;;;19.70;99.90;;;;;;4991087;28;20062;-52
2021/09/15 11:07:57;;;;;;;49.08;36.53;;;19.80;99.90;;;;;;5014007;28;20474;-53
2021/09/15 11:10:31;;;;;;;50.50;36.63;;;19.80;99.90;;;;;;5004370;28;20112;-56
2021/09/15 11:12:58;;;;;;;67.97;43.35;;;19.80;99.90;;;;;;5024960;28;20042;-56
2021/09/15 11:15:29;;;;;;;73.40;44.03;;;19.80;99.90;;;;;;5015917;28;20038;-56
2021/09/15 11:17:55;;;;;;;69.65;43.22;;;19.70;99.90;;;;;;5006136;28;20402;-56
2021/09/15 11:20:23;;;;;;;74.03;43.88;;;19.60;99.90;;;;;;5011611;28;20034;-56
2021/09/15 11:22:49;;;;;;;73.00;42.15;;;19.60;99.90;;;;;;5019097;28;20042;-57
2021/09/15 11:25:18;;;;;;;70.25;41.83;;;19.60;99.90;;;;;;5006234;28;20076;-57
2021/09/15 11:28:10;;;;;;;67.90;40.15;;;19.60;99.90;;;;;;5010834;28;20445;-54
2021/09/15 11:30:57;;;;;;;70.10;40.10;;;19.50;99.90;;;;;;5000922;28;20042;-57
2021/09/15 11:33:33;;;;;;;67.18;39.88;;;19.50;99.90;;;;;;4999731;28;20510;-57
2021/09/15 11:36:08;;;;;;;68.72;39.00;;;19.60;99.90;;;;;;4995056;28;20048;-56
2021/09/15 11:38:36;;;;;;;61.00;37.45;;;19.70;99.90;;;;;;5004708;28;20403;-56
2021/09/15 11:41:10;;;;;;;55.10;34.85;;;19.70;99.90;;;;;;4965797;28;20057;-57
2021/09/15 11:43:37;;;;;;;53.40;33.22;;;19.80;99.90;;;;;;5019122;28;20133;-57
2021/09/15 11:46:03;;;;;;;50.60;31.60;;;19.90;99.90;;;;;;5009145;28;20387;-56
2021/09/15 11:48:31;;;;;;;49.08;32.35;;;20.00;99.90;;;;;;4975136;28;20056;-57
2021/09/15 11:50:57;;;;;;;41.63;27.40;;;20.10;99.90;;;;;;5008891;28;20061;-56
2021/09/15 11:53:24;;;;;;;38.78;25.98;;;20.10;99.90;;;;;;5009701;28;20037;-56
2021/09/15 11:56:00;;;;;;;41.83;25.98;;;20.10;99.90;;;;;;5009848;28;20396;-56
2021/09/15 11:58:26;;;;;;;35.78;23.10;;;20.10;99.60;;;;;;5007809;28;20034;-55
2021/09/15 12:00:53;;;;;;;36.08;23.98;;;20.20;99.30;;;;;;5000014;28;20068;-56
2021/09/15 12:03:25;;;;;;;37.95;25.60;;;20.30;98.70;;;;;;4951598;28;20038;-55
2021/09/15 12:05:52;;;;;;;31.13;21.77;;;20.40;98.50;;;;;;4986259;28;20405;-56
2021/09/15 12:08:18;;;;;;;30.92;21.50;;;20.60;97.50;;;;;;4973290;28;20556;-56
2021/09/15 12:10:45;;;;;;;31.73;21.92;;;20.60;96.60;;;;;;4993539;28;20042;-56
2021/09/15 12:13:11;;;;;;;31.02;20.85;;;20.60;96.40;;;;;;4994940;28;20121;-56
2021/09/15 12:15:47;;;;;;;28.70;19.80;;;20.60;96.50;;;;;;5001894;28;20105;-56
2021/09/15 12:18:13;;;;;;;26.42;18.98;;;20.60;95.80;;;;;;5005223;28;20042;-55
2021/09/15 12:20:51;;;;;;;27.02;19.05;;;20.50;96.10;;;;;;4995279;28;20031;-57
2021/09/15 12:23:31;;;;;;;26.73;18.00;;;20.40;96.00;;;;;;4993550;28;20060;-57
2021/09/15 12:25:59;;;;;;;27.67;17.55;;;20.30;95.90;;;;;;5005752;28;20121;-56
2021/09/15 12:28:27;;;;;;;22.50;17.20;;;20.30;96.40;;;;;;5009344;28;20065;-56
2021/09/15 12:30:54;;;;;;;27.23;18.85;;;20.30;96.60;;;;;;4994805;28;20052;-56
2021/09/15 12:33:25;;;;;;;29.17;20.42;;;20.30;96.50;;;;;;5008470;28;20414;-56
2021/09/15 12:36:10;;;;;;;27.30;20.70;;;20.30;96.70;;;;;;5007927;28;20034;-56
2021/09/15 12:38:50;;;;;;;29.13;21.17;;;20.30;96.80;;;;;;5008493;28;20507;-56
2021/09/15 12:41:16;;;;;;;30.05;21.67;;;20.30;96.80;;;;;;5013535;28;20084;-56
2021/09/15 12:43:42;;;;;;;26.27;20.70;;;20.30;96.90;;;;;;5012670;28;20125;-55
2021/09/15 12:46:28;;;;;;;27.65;20.50;;;20.30;97.00;;;;;;5019182;28;20038;-56